Time;durP1;ratioP1;P1;durP2;ratioP2;P2;SDS_P1;SDS_P2;PMS_P1;PMS_P2;Temp;Humidity;BMP_temperature;BMP_pressure;BME280_temperature;BME280_humidity;BME280_pressure;Samples;Min_cycle;Max_cycle;Signal;HPM_P1;HPM_P2
2022/06/13 00:00:32;;;;;;;3.85;3.45;;;;;;;;;;4434619;32;20251;-60
2022/06/13 00:02:59;;;;;;;3.90;3.03;;;;;;;;;;4434294;32;20266;-61
2022/06/13 00:05:25;;;;;;;4.15;2.87;;;;;;;;;;4434304;32;20243;-60
2022/06/13 00:07:50;;;;;;;6.07;3.53;;;;;;;;;;4434762;32;20272;-61
2022/06/13 00:10:16;;;;;;;6.65;3.10;;;;;;;;;;4434333;32;20188;-61
2022/06/13 00:12:43;;;;;;;4.53;3.10;;;;;;;;;;4434370;32;20360;-61
2022/06/13 00:15:12;;;;;;;3.72;2.85;;;;;;;;;;4434189;32;20264;-61
2022/06/13 00:17:37;;;;;;;4.97;3.78;;;;;;;;;;4434028;32;20236;-60
2022/06/13 00:20:04;;;;;;;5.22;3.72;;;;;;;;;;4434166;32;20522;-61
2022/06/13 00:22:30;;;;;;;7.25;3.40;;;;;;;;;;4434002;32;20240;-61
2022/06/13 00:24:55;;;;;;;15.20;3.53;;;;;;;;;;4434101;32;20223;-61
2022/06/13 00:27:20;;;;;;;4.57;3.05;;;;;;;;;;4434126;32;20655;-61
2022/06/13 00:29:49;;;;;;;3.62;3.17;;;;;;;;;;4433915;32;20208;-61
2022/06/13 00:32:15;;;;;;;5.45;3.25;;;;;;;;;;4433721;32;20651;-60
2022/06/13 00:34:40;;;;;;;7.90;3.20;;;;;;;;;;4434250;32;20546;-61
2022/06/13 00:37:06;;;;;;;4.05;3.55;;;;;;;;;;4430974;32;20229;-60
2022/06/13 00:39:32;;;;;;;9.13;3.42;;;;;;;;;;4433943;32;20212;-61
2022/06/13 00:41:58;;;;;;;4.43;3.17;;;;;;;;;;4434088;32;20293;-61
2022/06/13 00:44:27;;;;;;;6.30;3.15;;;;;;;;;;4433840;32;20193;-61
2022/06/13 00:46:53;;;;;;;6.43;3.80;;;;;;;;;;4433611;32;20224;-61
2022/06/13 00:49:21;;;;;;;10.73;4.43;;;;;;;;;;4433849;32;20188;-61
2022/06/13 00:51:50;;;;;;;4.62;3.42;;;;;;;;;;4421315;32;20652;-60
2022/06/13 00:54:20;;;;;;;4.82;3.47;;;;;;;;;;4418530;32;20209;-61
2022/06/13 00:56:48;;;;;;;7.07;3.47;;;;;;;;;;4417220;32;20669;-60
2022/06/13 00:59:17;;;;;;;4.50;3.50;;;;;;;;;;4418236;32;20247;-62
2022/06/13 01:01:44;;;;;;;7.07;4.18;;;;;;;;;;4416732;32;20236;-60
2022/06/13 01:04:10;;;;;;;4.35;3.95;;;;;;;;;;4417092;32;20308;-61
2022/06/13 01:06:39;;;;;;;7.35;5.00;;;;;;;;;;4418368;32;20667;-61
2022/06/13 01:09:08;;;;;;;7.95;3.55;;;;;;;;;;4418302;32;20197;-60
2022/06/13 01:11:36;;;;;;;7.93;4.20;;;;;;;;;;4416904;32;20240;-60
2022/06/13 01:14:26;;;;;;;9.10;4.20;;;;;;;;;;4418363;32;20288;-60
2022/06/13 01:17:03;;;;;;;5.50;4.25;;;;;;;;;;4418097;32;20359;-60
2022/06/13 01:20:07;;;;;;;5.22;3.80;;;;;;;;;;4418092;32;20218;-59
2022/06/13 01:22:47;;;;;;;5.25;3.83;;;;;;;;;;4416768;32;20690;-61
2022/06/13 01:25:37;;;;;;;4.87;3.87;;;;;;;;;;4430234;32;20287;-60
2022/06/13 01:28:55;;;;;;;5.15;4.07;;;;;;;;;;4433702;32;20212;-60
2022/06/13 01:31:27;;;;;;;4.75;3.67;;;;;;;;;;4433435;32;20213;-60
2022/06/13 01:34:12;;;;;;;3.60;3.25;;;;;;;;;;4433479;32;20256;-61
2022/06/13 01:37:03;;;;;;;4.75;4.10;;;;;;;;;;4433125;32;20518;-60
2022/06/13 01:40:04;;;;;;;8.93;3.33;;;;;;;;;;4433397;32;20253;-60
2022/06/13 01:42:32;;;;;;;5.55;3.58;;;;;;;;;;4433379;32;20604;-60
2022/06/13 01:45:13;;;;;;;4.78;3.75;;;;;;;;;;4433492;32;20276;-60
2022/06/13 01:47:59;;;;;;;5.05;3.80;;;;;;;;;;4432040;32;20637;-60
2022/06/13 01:50:27;;;;;;;5.80;4.28;;;;;;;;;;4433226;32;20201;-60
2022/06/13 01:53:16;;;;;;;5.00;3.72;;;;;;;;;;4433369;32;20217;-61
2022/06/13 01:55:53;;;;;;;7.30;4.03;;;;;;;;;;4432406;32;20277;-60
2022/06/13 01:58:26;;;;;;;5.82;4.00;;;;;;;;;;4431826;32;20234;-61
2022/06/13 02:01:01;;;;;;;6.95;4.30;;;;;;;;;;4432990;32;20287;-60
2022/06/13 02:03:35;;;;;;;7.20;4.07;;;;;;;;;;4433020;32;20299;-61
2022/06/13 02:06:10;;;;;;;4.97;3.60;;;;;;;;;;4433336;32;20259;-60
2022/06/13 02:08:43;;;;;;;4.65;3.67;;;;;;;;;;4435441;32;20173;-60
2022/06/13 02:11:39;;;;;;;6.20;3.50;;;;;;;;;;4436095;32;20255;-60
2022/06/13 02:14:09;;;;;;;5.03;4.32;;;;;;;;;;4436491;32;20227;-61
2022/06/13 02:16:53;;;;;;;8.95;4.32;;;;;;;;;;4435780;32;20251;-60
2022/06/13 02:19:42;;;;;;;7.40;4.25;;;;;;;;;;4436291;32;20225;-60
2022/06/13 02:22:36;;;;;;;9.88;3.92;;;;;;;;;;4426989;32;20267;-60
2022/06/13 02:25:07;;;;;;;10.38;4.57;;;;;;;;;;4435530;32;20865;-60
2022/06/13 02:27:36;;;;;;;9.35;3.78;;;;;;;;;;4436009;32;20285;-60
2022/06/13 02:30:22;;;;;;;5.72;3.60;;;;;;;;;;4435776;32;20267;-61
2022/06/13 02:32:54;;;;;;;3.85;3.20;;;;;;;;;;4435667;32;20208;-60
2022/06/13 02:35:25;;;;;;;14.43;3.40;;;;;;;;;;4434709;32;20656;-60
2022/06/13 02:38:08;;;;;;;4.97;3.65;;;;;;;;;;4435662;32;20281;-60
2022/06/13 02:40:39;;;;;;;10.77;4.20;;;;;;;;;;4435946;32;20197;-60
2022/06/13 02:43:39;;;;;;;11.93;4.32;;;;;;;;;;4435903;32;20297;-60
2022/06/13 02:46:11;;;;;;;6.55;4.45;;;;;;;;;;4435405;32;20266;-60
2022/06/13 02:49:05;;;;;;;5.60;4.32;;;;;;;;;;4435736;32;20193;-60
2022/06/13 02:51:59;;;;;;;8.32;3.90;;;;;;;;;;4435607;32;20308;-60
2022/06/13 02:54:31;;;;;;;7.40;4.45;;;;;;;;;;4434424;32;20662;-60
2022/06/13 02:57:24;;;;;;;6.97;4.25;;;;;;;;;;4435618;32;20304;-59
2022/06/13 03:00:08;;;;;;;10.13;4.47;;;;;;;;;;4435643;32;20185;-60
2022/06/13 03:03:00;;;;;;;12.52;4.53;;;;;;;;;;4435278;32;20220;-60
2022/06/13 03:05:47;;;;;;;9.07;4.53;;;;;;;;;;4435371;32;20565;-59
2022/06/13 03:08:24;;;;;;;10.60;4.62;;;;;;;;;;4435586;32;20223;-60
2022/06/13 03:11:16;;;;;;;10.35;4.72;;;;;;;;;;4435228;32;20192;-60
2022/06/13 03:13:57;;;;;;;6.47;3.92;;;;;;;;;;4435269;32;20658;-61
2022/06/13 03:16:35;;;;;;;9.65;3.92;;;;;;;;;;4434941;32;20217;-61
2022/06/13 03:19:08;;;;;;;4.75;3.50;;;;;;;;;;4419102;32;20252;-60
2022/06/13 03:21:38;;;;;;;5.18;2.87;;;;;;;;;;4418110;32;20267;-60
2022/06/13 03:24:30;;;;;;;9.43;3.67;;;;;;;;;;4424839;32;20197;-60
2022/06/13 03:27:00;;;;;;;6.95;3.40;;;;;;;;;;4435173;32;20550;-60
2022/06/13 03:29:42;;;;;;;4.00;3.22;;;;;;;;;;4433680;32;20245;-60
2022/06/13 03:32:12;;;;;;;5.12;3.37;;;;;;;;;;4434648;32;20258;-60
2022/06/13 03:34:43;;;;;;;17.58;3.97;;;;;;;;;;4434876;32;20182;-61
2022/06/13 03:37:12;;;;;;;7.80;3.45;;;;;;;;;;4434985;32;20296;-60
2022/06/13 03:39:43;;;;;;;6.68;3.78;;;;;;;;;;4434871;32;20275;-60
2022/06/13 03:42:14;;;;;;;9.13;3.10;;;;;;;;;;4435026;32;20669;-59
2022/06/13 03:44:59;;;;;;;10.30;3.65;;;;;;;;;;4433652;32;20884;-60
2022/06/13 03:47:41;;;;;;;4.25;3.30;;;;;;;;;;4434090;32;20240;-60
2022/06/13 03:50:17;;;;;;;7.87;3.37;;;;;;;;;;4434613;32;20304;-60
2022/06/13 03:52:49;;;;;;;4.78;3.78;;;;;;;;;;4434366;32;20246;-60
2022/06/13 03:55:25;;;;;;;8.18;3.55;;;;;;;;;;4435076;32;20211;-60
2022/06/13 03:57:56;;;;;;;5.12;3.17;;;;;;;;;;4434610;32;20228;-61
2022/06/13 04:00:28;;;;;;;7.28;3.65;;;;;;;;;;4434686;32;20354;-60
2022/06/13 04:02:55;;;;;;;7.30;4.03;;;;;;;;;;4434337;32;20526;-60
2022/06/13 04:05:32;;;;;;;4.55;3.45;;;;;;;;;;4433246;32;20217;-60
2022/06/13 04:07:59;;;;;;;4.30;3.70;;;;;;;;;;4434819;32;20217;-60
2022/06/13 04:10:25;;;;;;;8.35;4.80;;;;;;;;;;4434162;32;20201;-60
2022/06/13 04:13:02;;;;;;;8.98;4.35;;;;;;;;;;4434211;32;20251;-60
2022/06/13 04:15:42;;;;;;;9.38;3.95;;;;;;;;;;4433001;32;20216;-60
2022/06/13 04:18:26;;;;;;;5.00;3.60;;;;;;;;;;4434530;32;20217;-61
2022/06/13 04:21:13;;;;;;;7.25;3.80;;;;;;;;;;4434309;32;20268;-60
2022/06/13 04:24:13;;;;;;;8.07;3.47;;;;;;;;;;4432834;32;20250;-61
2022/06/13 04:27:01;;;;;;;5.78;3.85;;;;;;;;;;4434262;32;20623;-60
2022/06/13 04:29:35;;;;;;;4.75;3.40;;;;;;;;;;4423175;32;20251;-60
2022/06/13 04:32:05;;;;;;;11.75;4.25;;;;;;;;;;4432358;32;20296;-61
2022/06/13 04:34:38;;;;;;;6.43;5.82;;;;;;;;;;4432508;32;20220;-62
2022/06/13 04:37:05;;;;;;;9.15;7.87;;;;;;;;;;4433851;32;20247;-60
2022/06/13 04:39:34;;;;;;;11.63;9.80;;;;;;;;;;4434071;32;20220;-61
2022/06/13 04:42:02;;;;;;;18.23;8.38;;;;;;;;;;4433549;32;20677;-60
2022/06/13 04:44:30;;;;;;;11.10;8.40;;;;;;;;;;4433676;32;20279;-61
2022/06/13 04:46:57;;;;;;;11.30;8.57;;;;;;;;;;4433456;32;20209;-60
2022/06/13 04:49:46;;;;;;;10.43;7.15;;;;;;;;;;4433533;32;20716;-61
2022/06/13 04:52:25;;;;;;;7.72;4.97;;;;;;;;;;4433363;32;20268;-61
2022/06/13 04:54:59;;;;;;;7.32;4.82;;;;;;;;;;4433567;32;20571;-61
2022/06/13 04:57:26;;;;;;;6.22;5.25;;;;;;;;;;4433161;32;20251;-61
2022/06/13 04:59:51;;;;;;;12.07;6.30;;;;;;;;;;4433387;32;20701;-61
2022/06/13 05:02:35;;;;;;;9.82;5.03;;;;;;;;;;4432581;32;20259;-62
2022/06/13 05:05:01;;;;;;;8.73;4.50;;;;;;;;;;4433559;32;20318;-61
2022/06/13 05:07:27;;;;;;;9.10;4.97;;;;;;;;;;4433146;32;20217;-61
2022/06/13 05:10:00;;;;;;;12.35;4.80;;;;;;;;;;4432581;32;20235;-60
2022/06/13 05:12:32;;;;;;;8.90;4.50;;;;;;;;;;4433260;32;20289;-60
2022/06/13 05:15:07;;;;;;;8.63;4.05;;;;;;;;;;4433154;32;20551;-61
2022/06/13 05:17:32;;;;;;;7.47;4.75;;;;;;;;;;4432960;32;20747;-62
2022/06/13 05:20:59;;;;;;;7.60;4.43;;;;;;;;;;4433257;32;20221;-60
2022/06/13 05:23:39;;;;;;;9.30;4.72;;;;;;;;;;4385233;32;20245;-60
2022/06/13 05:26:06;;;;;;;8.38;5.37;;;;;;;;;;4427114;32;20211;-60
2022/06/13 05:28:34;;;;;;;7.90;5.18;;;;;;;;;;4432279;32;20288;-60
2022/06/13 05:31:09;;;;;;;9.98;6.25;;;;;;;;;;4432280;32;20255;-60
2022/06/13 05:33:38;;;;;;;77.75;21.90;;;;;;;;;;4433149;32;20207;-61
2022/06/13 05:36:08;;;;;;;63.38;19.73;;;;;;;;;;4433071;32;20212;-61
2022/06/13 05:38:46;;;;;;;26.15;9.60;;;;;;;;;;4433212;32;20227;-62
2022/06/13 05:41:11;;;;;;;26.98;8.05;;;;;;;;;;4432192;32;20251;-61
2022/06/13 05:43:37;;;;;;;42.72;11.07;;;;;;;;;;4431719;32;20205;-61
2022/06/13 05:46:04;;;;;;;40.08;12.27;;;;;;;;;;4430628;32;20250;-61
2022/06/13 05:48:30;;;;;;;30.45;11.40;;;;;;;;;;4432523;32;20201;-61
2022/06/13 05:50:56;;;;;;;32.95;11.55;;;;;;;;;;4425616;32;20267;-61
2022/06/13 05:53:24;;;;;;;30.70;11.25;;;;;;;;;;4420367;32;20645;-61
2022/06/13 05:55:51;;;;;;;16.27;6.68;;;;;;;;;;4431146;32;20212;-62
2022/06/13 05:58:17;;;;;;;7.43;5.90;;;;;;;;;;4431711;32;20338;-62
2022/06/13 06:00:46;;;;;;;22.05;8.70;;;;;;;;;;4430262;32;20201;-60
2022/06/13 06:03:12;;;;;;;17.48;7.55;;;;;;;;;;4430374;32;20299;-62
2022/06/13 06:05:39;;;;;;;6.85;5.82;;;;;;;;;;4431236;32;20212;-62
2022/06/13 06:08:05;;;;;;;15.55;6.40;;;;;;;;;;4430600;32;20319;-60
2022/06/13 06:10:34;;;;;;;20.10;7.47;;;;;;;;;;4431680;32;20285;-60
2022/06/13 06:13:00;;;;;;;16.75;7.32;;;;;;;;;;4432358;32;20244;-60
2022/06/13 06:15:25;;;;;;;9.00;5.12;;;;;;;;;;4431493;32;20228;-61
2022/06/13 06:17:51;;;;;;;14.52;7.45;;;;;;;;;;4432099;32;20312;-61
2022/06/13 06:20:18;;;;;;;9.27;6.68;;;;;;;;;;4431555;32;20213;-61
2022/06/13 06:22:44;;;;;;;7.37;6.35;;;;;;;;;;4431936;32;20743;-61
2022/06/13 06:25:10;;;;;;;8.43;6.45;;;;;;;;;;4432308;32;20276;-60
2022/06/13 06:27:36;;;;;;;11.50;6.32;;;;;;;;;;4432501;32;20614;-60
2022/06/13 06:30:01;;;;;;;17.87;7.97;;;;;;;;;;4432274;32;20280;-60
2022/06/13 06:32:27;;;;;;;14.48;6.95;;;;;;;;;;4431957;32;20252;-60
2022/06/13 06:34:52;;;;;;;10.30;6.28;;;;;;;;;;4430635;32;20236;-62
2022/06/13 06:37:18;;;;;;;10.05;4.95;;;;;;;;;;4429097;32;20345;-61
2022/06/13 06:39:44;;;;;;;15.45;6.20;;;;;;;;;;4437643;32;20217;-64
2022/06/13 06:42:09;;;;;;;6.32;4.62;;;;;;;;;;4442424;32;20248;-64
2022/06/13 06:44:35;;;;;;;8.77;5.05;;;;;;;;;;4441617;32;20209;-64
2022/06/13 06:47:01;;;;;;;5.03;4.00;;;;;;;;;;4437624;32;20368;-64
2022/06/13 06:49:26;;;;;;;8.63;4.87;;;;;;;;;;4437624;32;20290;-64
2022/06/13 06:51:52;;;;;;;5.53;4.40;;;;;;;;;;4431421;32;20327;-64
2022/06/13 06:59:55;;;;;;;9.98;5.03;;;;;;;;;;4430718;32;20677;-63
2022/06/13 07:02:26;;;;;;;6.10;3.83;;;;;;;;;;4434301;32;20263;-63
2022/06/13 07:05:04;;;;;;;6.30;3.58;;;;;;;;;;4443345;32;20413;-63
2022/06/13 07:07:29;;;;;;;4.12;3.28;;;;;;;;;;4442426;32;20672;-63
2022/06/13 07:09:56;;;;;;;8.05;3.15;;;;;;;;;;4443381;32;20335;-64
2022/06/13 07:12:21;;;;;;;8.00;3.05;;;;;;;;;;4442366;32;20259;-64
2022/06/13 07:14:47;;;;;;;6.57;3.40;;;;;;;;;;4441506;32;20668;-62
2022/06/13 07:17:13;;;;;;;4.30;2.83;;;;;;;;;;4442357;32;20614;-64
2022/06/13 07:19:40;;;;;;;3.15;2.85;;;;;;;;;;4441178;32;20201;-63
2022/06/13 07:22:07;;;;;;;3.12;2.40;;;;;;;;;;4433812;32;20256;-62
2022/06/13 07:24:33;;;;;;;5.60;2.83;;;;;;;;;;4433997;32;20212;-62
2022/06/13 07:27:00;;;;;;;4.20;3.47;;;;;;;;;;4434103;32;20217;-62
2022/06/13 07:29:26;;;;;;;3.15;2.67;;;;;;;;;;4433846;32;20201;-62
2022/06/13 07:31:54;;;;;;;4.30;3.25;;;;;;;;;;4433985;32;20329;-62
2022/06/13 07:34:23;;;;;;;2.50;2.30;;;;;;;;;;4433786;32;20272;-62
2022/06/13 07:36:51;;;;;;;3.90;3.40;;;;;;;;;;4433711;32;20300;-63
2022/06/13 07:39:17;;;;;;;3.67;2.70;;;;;;;;;;4434385;32;20303;-63
2022/06/13 07:41:43;;;;;;;3.75;2.10;;;;;;;;;;4433977;32;20229;-62
2022/06/13 07:44:17;;;;;;;3.40;2.47;;;;;;;;;;4433736;32;20814;-62
2022/06/13 07:46:46;;;;;;;3.80;2.55;;;;;;;;;;4433576;32;20247;-62
2022/06/13 07:49:11;;;;;;;4.80;2.40;;;;;;;;;;4432396;32;20521;-62
2022/06/13 07:51:37;;;;;;;6.78;2.55;;;;;;;;;;4433877;32;20224;-61
2022/06/13 07:54:02;;;;;;;2.47;2.00;;;;;;;;;;4433995;32;20231;-62
2022/06/13 07:56:30;;;;;;;3.40;2.20;;;;;;;;;;4433873;32;20256;-64
2022/06/13 07:58:56;;;;;;;3.40;2.00;;;;;;;;;;4433844;32;20280;-62
2022/06/13 08:01:22;;;;;;;3.47;2.42;;;;;;;;;;4433512;32;20343;-63
2022/06/13 08:03:48;;;;;;;2.60;2.30;;;;;;;;;;4433962;32;20209;-63
2022/06/13 08:06:14;;;;;;;6.22;2.08;;;;;;;;;;4431910;32;20225;-62
2022/06/13 08:08:40;;;;;;;3.17;2.37;;;;;;;;;;4432434;32;20404;-62
2022/06/13 08:11:08;;;;;;;5.03;2.33;;;;;;;;;;4433310;32;20677;-64
2022/06/13 08:13:36;;;;;;;4.72;2.45;;;;;;;;;;4433311;32;20275;-63
2022/06/13 08:16:02;;;;;;;6.20;2.42;;;;;;;;;;4433436;32;20288;-63
2022/06/13 08:18:28;;;;;;;3.65;2.83;;;;;;;;;;4433170;32;20201;-62
2022/06/13 08:20:54;;;;;;;3.62;2.33;;;;;;;;;;4433567;32;20374;-62
2022/06/13 08:23:21;;;;;;;3.92;2.58;;;;;;;;;;4432624;32;20260;-63
2022/06/13 08:25:48;;;;;;;6.35;2.35;;;;;;;;;;4432292;32;20521;-64
2022/06/13 08:28:14;;;;;;;4.30;2.85;;;;;;;;;;4433143;32;20262;-64
2022/06/13 08:30:45;;;;;;;3.25;2.35;;;;;;;;;;4432936;32;21176;-63
2022/06/13 08:33:11;;;;;;;3.00;2.33;;;;;;;;;;4431892;32;20640;-63
2022/06/13 08:35:37;;;;;;;7.22;2.30;;;;;;;;;;4430940;32;20356;-63
2022/06/13 08:38:03;;;;;;;3.42;2.35;;;;;;;;;;4432315;32;20236;-62
2022/06/13 08:40:53;;;;;;;5.15;2.30;;;;;;;;;;4431726;32;20282;-63
2022/06/13 08:44:03;;;;;;;16.80;2.60;;;;;;;;;;4432104;32;20229;-64
2022/06/13 08:46:31;;;;;;;2.40;1.70;;;;;;;;;;4417331;32;20339;-62
2022/06/13 08:49:09;;;;;;;4.53;2.20;;;;;;;;;;4432845;32;20272;-62
2022/06/13 08:51:46;;;;;;;7.03;2.70;;;;;;;;;;4432576;32;20229;-63
2022/06/13 08:54:18;;;;;;;3.67;2.72;;;;;;;;;;4431388;32;20313;-63
2022/06/13 08:56:43;;;;;;;3.30;1.95;;;;;;;;;;4432925;32;20224;-63
2022/06/13 08:59:23;;;;;;;5.60;2.37;;;;;;;;;;4431401;32;20297;-63
2022/06/13 09:02:11;;;;;;;4.62;1.87;;;;;;;;;;4433154;32;20494;-62
2022/06/13 09:04:43;;;;;;;7.65;2.70;;;;;;;;;;4432952;32;20247;-63
2022/06/13 09:07:11;;;;;;;7.07;2.70;;;;;;;;;;4433039;32;20333;-63
2022/06/13 09:09:43;;;;;;;14.45;2.37;;;;;;;;;;4431457;32;20550;-62
2022/06/13 09:12:21;;;;;;;5.97;2.53;;;;;;;;;;4432910;32;20426;-62
2022/06/13 09:15:08;;;;;;;7.28;2.60;;;;;;;;;;4432915;32;20628;-62
2022/06/13 09:17:52;;;;;;;4.60;2.08;;;;;;;;;;4432689;32;20248;-61
2022/06/13 09:20:26;;;;;;;4.18;2.37;;;;;;;;;;4431239;32;20289;-60
2022/06/13 09:23:04;;;;;;;4.78;2.83;;;;;;;;;;4432419;32;20398;-60
2022/06/13 09:25:42;;;;;;;3.40;2.17;;;;;;;;;;4432866;32;20243;-62
2022/06/13 09:28:17;;;;;;;3.17;2.20;;;;;;;;;;4432836;32;20397;-61
2022/06/13 09:30:54;;;;;;;5.43;2.50;;;;;;;;;;4432126;32;20197;-61
2022/06/13 09:33:28;;;;;;;2.58;2.17;;;;;;;;;;4432740;32;20266;-61
2022/06/13 09:36:05;;;;;;;3.50;2.92;;;;;;;;;;4432163;32;20264;-61
2022/06/13 09:38:45;;;;;;;5.37;2.25;;;;;;;;;;4432480;32;20212;-60
2022/06/13 09:41:31;;;;;;;3.33;2.50;;;;;;;;;;4432036;32;20276;-60
2022/06/13 09:44:15;;;;;;;6.28;2.60;;;;;;;;;;4432298;32;20211;-60
2022/06/13 09:47:13;;;;;;;6.82;1.80;;;;;;;;;;4431444;32;20252;-60
2022/06/13 09:50:01;;;;;;;3.15;2.15;;;;;;;;;;4432480;32;20212;-60
2022/06/13 09:52:41;;;;;;;8.07;4.68;;;;;;;;;;4431658;32;20544;-61
2022/06/13 09:55:35;;;;;;;9.10;2.17;;;;;;;;;;4432512;32;20197;-62
2022/06/13 09:58:20;;;;;;;6.40;2.37;;;;;;;;;;4427695;32;20594;-61
2022/06/13 10:01:01;;;;;;;3.42;1.95;;;;;;;;;;4432030;32;20224;-60
2022/06/13 10:03:38;;;;;;;12.55;2.25;;;;;;;;;;4432489;32;20262;-61
2022/06/13 10:06:25;;;;;;;7.10;2.40;;;;;;;;;;4431478;32;20216;-60
2022/06/13 10:09:16;;;;;;;3.12;1.98;;;;;;;;;;4431775;32;20184;-60
2022/06/13 10:11:54;;;;;;;4.28;2.17;;;;;;;;;;4430238;32;20240;-62
2022/06/13 10:14:30;;;;;;;8.18;2.47;;;;;;;;;;4430282;32;20259;-63
2022/06/13 10:17:18;;;;;;;7.62;3.28;;;;;;;;;;4432498;32;20216;-63
2022/06/13 10:20:16;;;;;;;3.67;2.45;;;;;;;;;;4432173;32;20197;-64
2022/06/13 10:23:08;;;;;;;3.25;2.40;;;;;;;;;;4431566;32;20418;-62
2022/06/13 10:25:52;;;;;;;2.65;2.33;;;;;;;;;;4407269;32;20299;-63
2022/06/13 10:28:45;;;;;;;2.55;2.12;;;;;;;;;;4431893;32;20495;-63
2022/06/13 10:31:44;;;;;;;5.30;2.42;;;;;;;;;;4434310;32;20243;-63
2022/06/13 10:34:24;;;;;;;8.82;2.55;;;;;;;;;;4434617;32;20237;-63
2022/06/13 10:37:08;;;;;;;4.32;1.95;;;;;;;;;;4433232;32;20301;-64
2022/06/13 10:39:34;;;;;;;7.70;3.05;;;;;;;;;;4435015;32;20518;-64
2022/06/13 10:42:09;;;;;;;3.35;2.78;;;;;;;;;;4433425;32;20252;-62
2022/06/13 10:44:37;;;;;;;5.28;3.45;;;;;;;;;;4433228;32;20246;-63
2022/06/13 10:47:24;;;;;;;3.45;2.35;;;;;;;;;;4434506;32;20776;-62
2022/06/13 10:49:56;;;;;;;3.03;2.30;;;;;;;;;;4434678;32;20201;-62
2022/06/13 10:52:30;;;;;;;2.85;2.37;;;;;;;;;;4435097;32;20436;-63
2022/06/13 10:55:00;;;;;;;6.68;2.85;;;;;;;;;;4433850;32;20292;-63
2022/06/13 10:57:35;;;;;;;5.75;2.83;;;;;;;;;;4434316;32;20236;-63
2022/06/13 11:00:28;;;;;;;2.50;2.20;;;;;;;;;;4433735;32;20317;-64
2022/06/13 11:03:10;;;;;;;6.35;2.95;;;;;;;;;;4431423;32;20255;-63
2022/06/13 11:05:49;;;;;;;3.12;2.42;;;;;;;;;;4433068;32;20291;-63
2022/06/13 11:08:15;;;;;;;6.07;3.10;;;;;;;;;;4434970;32;20209;-63
2022/06/13 11:10:50;;;;;;;6.80;2.72;;;;;;;;;;4434756;32;20377;-62
2022/06/13 11:13:22;;;;;;;5.25;2.47;;;;;;;;;;4435371;32;20226;-63
2022/06/13 11:24:41;;;;;;;4.50;2.85;;;;;;;;;;4432260;32;20277;-62
2022/06/13 11:30:25;;;;;;;8.93;4.05;;;;;;;;;;4434170;32;20345;-63
2022/06/13 11:33:13;;;;;;;8.02;3.47;;;;;;;;;;4434585;32;20267;-62
2022/06/13 11:35:48;;;;;;;7.20;4.20;;;;;;;;;;4432812;32;20602;-63
2022/06/13 11:38:29;;;;;;;8.75;3.47;;;;;;;;;;4421478;32;20255;-63
2022/06/13 11:41:19;;;;;;;3.00;2.45;;;;;;;;;;4429983;32;20237;-63
2022/06/13 11:43:46;;;;;;;6.85;2.90;;;;;;;;;;4426054;32;20307;-63
2022/06/13 11:46:27;;;;;;;10.43;3.00;;;;;;;;;;4432379;32;20644;-63
2022/06/13 11:48:55;;;;;;;3.62;2.92;;;;;;;;;;4432484;32;20628;-63
2022/06/13 11:51:24;;;;;;;8.75;3.05;;;;;;;;;;4432844;32;20237;-63
2022/06/13 11:53:53;;;;;;;4.18;3.20;;;;;;;;;;4432517;32;20340;-62
2022/06/13 11:56:29;;;;;;;5.40;3.17;;;;;;;;;;4432630;32;20299;-63
2022/06/13 11:58:58;;;;;;;4.15;3.70;;;;;;;;;;4434181;32;20648;-63
2022/06/13 12:01:36;;;;;;;4.70;3.40;;;;;;;;;;4434026;32;20237;-63
2022/06/13 12:04:13;;;;;;;5.20;3.60;;;;;;;;;;4434505;32;20306;-62
2022/06/13 12:06:42;;;;;;;11.63;3.87;;;;;;;;;;4434038;32;20224;-62
2022/06/13 12:09:23;;;;;;;7.05;3.08;;;;;;;;;;4434040;32;20289;-62
2022/06/13 12:11:54;;;;;;;4.25;3.00;;;;;;;;;;4434256;32;20307;-62
2022/06/13 12:14:20;;;;;;;5.65;3.30;;;;;;;;;;4433176;32;20232;-63
2022/06/13 12:17:01;;;;;;;5.37;3.95;;;;;;;;;;4433768;32;20248;-61
2022/06/13 12:19:37;;;;;;;4.28;3.12;;;;;;;;;;4434237;32;20223;-62
2022/06/13 12:22:15;;;;;;;3.70;2.70;;;;;;;;;;4433549;32;20408;-63
2022/06/13 12:25:11;;;;;;;6.40;3.45;;;;;;;;;;4433850;32;20216;-62
2022/06/13 12:27:51;;;;;;;10.52;2.87;;;;;;;;;;4418397;32;20611;-62
2022/06/13 12:30:25;;;;;;;7.47;3.22;;;;;;;;;;4427860;32;20398;-69
2022/06/13 12:33:06;;;;;;;6.07;3.90;;;;;;;;;;4433857;32;20575;-62
2022/06/13 12:36:12;;;;;;;7.72;3.55;;;;;;;;;;4433950;32;20258;-61
2022/06/13 12:39:12;;;;;;;4.60;3.17;;;;;;;;;;4418363;32;20197;-62
2022/06/13 12:41:56;;;;;;;4.72;3.17;;;;;;;;;;4416846;32;20241;-62
2022/06/13 12:44:40;;;;;;;6.43;3.35;;;;;;;;;;4417967;32;20276;-63
2022/06/13 12:47:44;;;;;;;5.22;3.85;;;;;;;;;;4418263;32;20225;-62
2022/06/13 12:50:28;;;;;;;3.47;2.70;;;;;;;;;;4414425;32;20668;-62
2022/06/13 12:53:01;;;;;;;3.67;2.87;;;;;;;;;;4426107;32;20279;-61
2022/06/13 12:55:36;;;;;;;4.10;2.70;;;;;;;;;;4431211;32;20316;-61
2022/06/13 12:58:30;;;;;;;7.57;3.78;;;;;;;;;;4429848;32;20573;-62
2022/06/13 13:01:10;;;;;;;9.27;2.92;;;;;;;;;;4431142;32;20217;-61
2022/06/13 13:03:56;;;;;;;5.00;2.90;;;;;;;;;;4432575;32;20209;-61
2022/06/13 13:06:21;;;;;;;3.42;2.50;;;;;;;;;;4433246;32;20317;-61
2022/06/13 13:09:11;;;;;;;9.50;3.05;;;;;;;;;;4431744;32;20256;-61
2022/06/13 13:11:43;;;;;;;3.97;2.78;;;;;;;;;;4431592;32;20232;-62
2022/06/13 13:14:32;;;;;;;4.68;2.90;;;;;;;;;;4431064;32;20527;-61
2022/06/13 13:17:08;;;;;;;5.37;2.95;;;;;;;;;;4431449;32;20376;-61
2022/06/13 13:19:52;;;;;;;4.57;2.50;;;;;;;;;;4432630;32;20248;-61
2022/06/13 13:22:34;;;;;;;24.52;4.12;;;;;;;;;;4433121;32;20235;-61
2022/06/13 13:25:18;;;;;;;7.55;3.35;;;;;;;;;;4431476;32;20227;-60
2022/06/13 13:28:06;;;;;;;7.82;2.70;;;;;;;;;;4417843;32;20308;-59
2022/06/13 13:30:59;;;;;;;4.70;3.08;;;;;;;;;;4427897;32;20869;-60
2022/06/13 13:33:34;;;;;;;4.35;2.53;;;;;;;;;;4433425;32;20280;-61
2022/06/13 13:36:10;;;;;;;7.03;3.72;;;;;;;;;;4433169;32;20422;-61
2022/06/13 13:38:41;;;;;;;11.60;3.85;;;;;;;;;;4432981;32;20227;-59
2022/06/13 13:41:28;;;;;;;4.53;3.17;;;;;;;;;;4433042;32;20350;-61
2022/06/13 13:44:09;;;;;;;22.73;4.03;;;;;;;;;;4432852;32;20220;-60
2022/06/13 13:46:40;;;;;;;9.90;3.30;;;;;;;;;;4433187;32;20229;-60
2022/06/13 13:49:10;;;;;;;7.05;3.15;;;;;;;;;;4433103;32;20197;-61
2022/06/13 13:51:43;;;;;;;13.68;4.70;;;;;;;;;;4431388;32;20248;-60
2022/06/13 13:54:08;;;;;;;5.60;4.00;;;;;;;;;;4433183;32;20232;-60
2022/06/13 13:56:40;;;;;;;9.00;3.75;;;;;;;;;;4431323;32;20614;-61
2022/06/13 13:59:08;;;;;;;8.48;4.00;;;;;;;;;;4432540;32;20201;-61
2022/06/13 14:01:43;;;;;;;5.20;3.80;;;;;;;;;;4432558;32;20232;-60
2022/06/13 14:04:22;;;;;;;13.00;5.35;;;;;;;;;;4432147;32;20200;-61
2022/06/13 14:06:59;;;;;;;9.27;4.87;;;;;;;;;;4431827;32;20352;-60
2022/06/13 14:09:25;;;;;;;7.95;4.62;;;;;;;;;;4431540;32;20522;-60
2022/06/13 14:11:59;;;;;;;8.00;4.32;;;;;;;;;;4432571;32;20216;-61
2022/06/13 14:14:27;;;;;;;8.48;3.72;;;;;;;;;;4430915;32;20232;-60
2022/06/13 14:16:55;;;;;;;5.65;4.72;;;;;;;;;;4431237;32;20343;-60
2022/06/13 14:19:25;;;;;;;4.85;3.03;;;;;;;;;;4432331;32;20292;-60
2022/06/13 14:21:50;;;;;;;17.20;2.70;;;;;;;;;;4432248;32;20244;-60
2022/06/13 14:24:19;;;;;;;8.30;2.65;;;;;;;;;;4431376;32;20274;-60
2022/06/13 14:26:45;;;;;;;3.83;2.53;;;;;;;;;;4431860;32;20232;-61
2022/06/13 14:29:28;;;;;;;9.35;3.12;;;;;;;;;;4432358;32;20251;-61
2022/06/13 14:32:29;;;;;;;6.85;2.90;;;;;;;;;;4442645;32;20492;-61
2022/06/13 14:35:16;;;;;;;4.35;3.08;;;;;;;;;;4413967;32;20242;-62
2022/06/13 14:37:46;;;;;;;13.40;3.35;;;;;;;;;;4435686;32;20295;-61
2022/06/13 14:40:24;;;;;;;6.03;3.60;;;;;;;;;;4433110;32;20583;-61
2022/06/13 14:42:57;;;;;;;5.85;3.15;;;;;;;;;;4430630;32;20330;-60
2022/06/13 14:45:58;;;;;;;3.35;2.58;;;;;;;;;;4433056;32;20479;-60
2022/06/13 14:48:47;;;;;;;7.82;2.75;;;;;;;;;;4418361;32;20297;-61
2022/06/13 14:51:20;;;;;;;5.72;2.60;;;;;;;;;;4432743;32;20672;-60
2022/06/13 14:53:49;;;;;;;7.85;3.17;;;;;;;;;;4433294;32;20609;-62
2022/06/13 14:56:14;;;;;;;3.92;3.03;;;;;;;;;;4432487;32;20590;-61
2022/06/13 14:58:45;;;;;;;4.85;2.53;;;;;;;;;;4432377;32;20316;-61
2022/06/13 15:01:32;;;;;;;14.38;3.10;;;;;;;;;;4432683;32;20301;-61
2022/06/13 15:04:20;;;;;;;6.85;2.92;;;;;;;;;;4432778;32;20225;-60
2022/06/13 15:06:52;;;;;;;4.35;2.83;;;;;;;;;;4431455;32;20244;-60
2022/06/13 15:09:24;;;;;;;4.85;2.17;;;;;;;;;;4432530;32;20271;-60
2022/06/13 15:11:53;;;;;;;3.47;2.70;;;;;;;;;;4431361;32;20633;-60
2022/06/13 15:14:23;;;;;;;4.32;2.28;;;;;;;;;;4431858;32;20386;-59
2022/06/13 15:16:51;;;;;;;4.53;2.78;;;;;;;;;;4434157;32;20442;-59
2022/06/13 15:19:18;;;;;;;3.92;2.50;;;;;;;;;;4434102;32;20326;-59
2022/06/13 15:21:59;;;;;;;4.07;2.72;;;;;;;;;;4433966;32;20296;-60
2022/06/13 15:24:25;;;;;;;7.55;2.65;;;;;;;;;;4435091;32;20649;-60
2022/06/13 15:27:04;;;;;;;5.62;2.55;;;;;;;;;;4420483;32;20259;-59
2022/06/13 15:29:30;;;;;;;15.65;2.78;;;;;;;;;;4418365;32;20309;-58
2022/06/13 15:32:16;;;;;;;8.18;2.83;;;;;;;;;;4419457;32;20238;-59
2022/06/13 15:34:54;;;;;;;7.07;3.12;;;;;;;;;;4419639;32;20588;-59
2022/06/13 15:37:19;;;;;;;4.72;3.03;;;;;;;;;;4429332;32;20251;-59
2022/06/13 15:39:46;;;;;;;3.90;2.65;;;;;;;;;;4434912;32;20235;-60
2022/06/13 15:42:24;;;;;;;3.15;2.47;;;;;;;;;;4433869;32;20691;-60
2022/06/13 15:44:51;;;;;;;9.68;3.28;;;;;;;;;;4434954;32;20219;-60